Time;durP1;ratioP1;P1;durP2;ratioP2;P2;SDS_P1;SDS_P2;PMS_P1;PMS_P2;Temp;Humidity;BMP_temperature;BMP_pressure;BME280_temperature;BME280_humidity;BME280_pressure;Samples;Min_cycle;Max_cycle;Signal;HPM_P1;HPM_P2
2022/05/26 00:00:55;;;;;;;30.30;23.33;;;;;;;17.05;73.21;95028.25;5088340;28;20031;-70
2022/05/26 00:03:20;;;;;;;37.78;24.85;;;;;;;16.98;74.29;95030.72;5119255;28;20055;-70
2022/05/26 00:05:46;;;;;;;32.35;23.67;;;;;;;16.97;73.84;95048.25;5095646;28;20028;-70
2022/05/26 00:08:11;;;;;;;30.90;23.48;;;;;;;16.93;73.50;95049.53;5094680;28;20032;-70
2022/05/26 00:10:37;;;;;;;34.28;26.77;;;;;;;16.77;74.74;95040.81;5112437;28;20485;-70
2022/05/26 00:13:02;;;;;;;34.65;25.65;;;;;;;16.81;74.71;95063.94;5114024;28;20434;-69
2022/05/26 00:15:30;;;;;;;35.45;24.98;;;;;;;16.79;74.55;95055.41;5113586;28;20036;-69
2022/05/26 00:17:55;;;;;;;33.03;25.20;;;;;;;16.68;75.36;95042.56;5095647;28;20480;-69
2022/05/26 00:20:21;;;;;;;35.00;27.23;;;;;;;16.78;76.00;95039.84;5111867;28;20053;-69
2022/05/26 00:22:46;;;;;;;35.88;25.88;;;;;;;16.78;75.10;95032.78;5112289;28;20032;-70
2022/05/26 00:25:12;;;;;;;28.98;23.60;;;;;;;16.77;74.88;95025.06;5113670;28;20073;-70
2022/05/26 00:27:37;;;;;;;33.35;25.80;;;;;;;16.77;75.99;95052.16;5114065;28;20062;-69
2022/05/26 00:30:03;;;;;;;32.40;25.50;;;;;;;16.73;75.90;95037.66;5111879;28;20028;-69
2022/05/26 00:32:29;;;;;;;39.10;28.52;;;;;;;16.81;76.38;95048.22;5113010;28;20511;-70
2022/05/26 00:34:54;;;;;;;33.20;24.67;;;;;;;16.80;75.00;95048.34;5095366;28;20038;-70
2022/05/26 00:37:20;;;;;;;34.55;26.58;;;;;;;16.79;75.51;95037.06;5112114;28;20272;-70
2022/05/26 00:39:45;;;;;;;34.22;26.48;;;;;;;16.71;75.68;95031.75;5111911;28;20046;-70
2022/05/26 00:42:11;;;;;;;31.35;25.08;;;;;;;16.85;75.57;95039.03;5111964;28;20481;-70
2022/05/26 00:44:37;;;;;;;34.22;26.13;;;;;;;16.91;75.86;95046.28;5095106;28;20023;-70
2022/05/26 00:47:05;;;;;;;34.17;26.35;;;;;;;16.83;75.42;95020.03;5111287;28;20535;-70
2022/05/26 00:50:08;;;;;;;41.25;28.17;;;;;;;16.79;76.06;95028.38;5113263;28;20490;-69
2022/05/26 00:52:50;;;;;;;32.58;25.80;;;;;;;16.83;75.79;95038.38;5111315;28;20421;-70
2022/05/26 00:55:31;;;;;;;34.50;27.08;;;;;;;16.80;75.83;95020.34;5113021;28;20027;-70
2022/05/26 00:58:11;;;;;;;34.42;26.05;;;;;;;16.86;75.95;95040.69;5096381;28;20036;-69
2022/05/26 01:00:37;;;;;;;34.70;26.80;;;;;;;16.83;75.89;95030.53;5095678;28;20035;-70
2022/05/26 01:03:16;;;;;;;35.50;25.80;;;;;;;16.87;75.75;95036.25;5093891;28;20048;-70
2022/05/26 01:05:52;;;;;;;29.70;23.73;;;;;;;16.89;75.15;95023.81;5094599;28;20024;-70
2022/05/26 01:08:54;;;;;;;32.00;24.75;;;;;;;16.93;75.12;95025.94;5111656;28;20035;-69
2022/05/26 01:11:19;;;;;;;34.05;24.08;;;;;;;16.89;74.90;95023.81;5111150;28;20626;-70
2022/05/26 01:13:50;;;;;;;30.98;24.23;;;;;;;16.80;74.33;95033.47;5111178;28;20031;-70
2022/05/26 01:16:35;;;;;;;34.25;26.70;;;;;;;16.78;75.79;95040.66;5110534;28;20024;-70
2022/05/26 01:19:12;;;;;;;34.50;25.67;;;;;;;16.75;75.25;95044.41;5111106;28;20030;-70
2022/05/26 01:22:00;;;;;;;33.72;26.23;;;;;;;16.60;75.65;95043.34;5111978;28;20105;-70
2022/05/26 01:24:58;;;;;;;31.90;25.83;;;;;;;16.58;75.68;95045.31;5082550;28;20019;-70
2022/05/26 01:27:36;;;;;;;36.20;27.25;;;;;;;16.49;76.25;95035.75;5112141;27;20447;-70
2022/05/26 01:30:20;;;;;;;32.10;25.70;;;;;;;16.60;75.94;95048.59;5111154;28;20477;-70
2022/05/26 01:33:16;;;;;;;30.85;24.02;;;;;;;16.54;75.28;95042.19;5111015;28;20419;-70
2022/05/26 01:35:54;;;;;;;31.65;23.77;;;;;;;16.46;74.88;95052.63;5109758;28;20036;-69
2022/05/26 01:38:28;;;;;;;30.00;24.13;;;;;;;16.36;75.21;95054.56;5112309;28;20407;-70
2022/05/26 01:41:09;;;;;;;31.05;24.65;;;;;;;16.44;75.33;95049.38;5110710;28;20028;-70
2022/05/26 01:43:37;;;;;;;27.80;23.30;;;;;;;16.37;75.23;95071.94;5111684;28;20039;-70
2022/05/26 01:46:36;;;;;;;29.35;24.70;;;;;;;16.23;75.39;95075.94;5112435;28;20028;-70
2022/05/26 01:49:22;;;;;;;35.28;27.20;;;;;;;16.22;76.38;95069.06;5110671;28;20447;-70
2022/05/26 01:52:12;;;;;;;30.05;24.85;;;;;;;16.34;75.97;95092.41;5110163;28;20093;-70
2022/05/26 01:55:12;;;;;;;29.55;23.45;;;;;;;16.14;75.02;95092.63;5093209;28;20076;-70
2022/05/26 01:57:47;;;;;;;31.63;23.73;;;;;;;16.15;75.04;95088.19;5099355;28;20051;-70
2022/05/26 02:00:15;;;;;;;29.20;23.38;;;;;;;16.05;75.14;95086.50;5110539;28;20054;-70
2022/05/26 02:03:09;;;;;;;32.00;25.55;;;;;;;15.98;76.13;95082.84;5093455;28;20040;-70
2022/05/26 02:05:39;;;;;;;29.40;24.45;;;;;;;16.03;75.57;95083.19;5101247;27;20024;-70
2022/05/26 02:08:29;;;;;;;29.88;22.75;;;;;;;16.01;75.71;95076.47;5104403;28;20040;-69
2022/05/26 02:11:19;;;;;;;31.58;24.85;;;;;;;15.94;76.04;95075.47;5082764;28;20579;-70
2022/05/26 02:13:47;;;;;;;29.42;24.63;;;;;;;15.89;75.66;95062.81;5109984;28;20135;-70
2022/05/26 02:16:17;;;;;;;34.08;26.13;;;;;;;15.98;76.43;95067.13;5110486;28;20102;-70
2022/05/26 02:18:50;;;;;;;32.58;25.13;;;;;;;15.98;76.48;95061.88;5110067;28;20485;-70
2022/05/26 02:21:28;;;;;;;31.38;24.88;;;;;;;16.09;75.89;95068.66;5109992;28;20149;-69
2022/05/26 02:24:13;;;;;;;31.45;25.23;;;;;;;16.01;76.17;95063.38;5109835;28;20244;-70
2022/05/26 02:26:38;;;;;;;32.67;26.00;;;;;;;15.95;77.07;95075.28;5094370;28;20481;-69
2022/05/26 02:31:48;;;;;;;32.13;26.23;;;;;;;16.01;77.33;95072.03;5109592;28;20088;-70
2022/05/26 02:34:14;;;;;;;31.55;25.13;;;;;;;15.99;76.42;95076.63;5110079;28;20027;-71
2022/05/26 02:36:39;;;;;;;30.55;23.75;;;;;;;16.07;75.98;95076.69;5092914;28;20035;-69
2022/05/26 02:39:05;;;;;;;31.45;25.23;;;;;;;15.99;74.94;95089.75;5092955;28;20027;-70
2022/05/26 02:41:30;;;;;;;38.63;28.17;;;;;;;15.90;76.41;95087.19;5092571;28;20057;-70
2022/05/26 02:43:56;;;;;;;33.22;26.35;;;;;;;15.86;77.06;95077.03;5092885;28;20032;-69
2022/05/26 02:47:03;;;;;;;30.67;25.08;;;;;;;15.84;75.93;95092.06;5092814;28;20035;-70
2022/05/26 02:50:24;;;;;;;27.63;22.73;;;;;;;15.96;75.62;95079.53;5109107;28;20043;-70
2022/05/26 02:53:01;;;;;;;30.55;24.05;;;;;;;15.96;76.50;95079.53;5110312;28;20044;-70
2022/05/26 02:55:27;;;;;;;33.03;25.88;;;;;;;16.01;76.83;95077.28;5103687;28;20035;-69
2022/05/26 02:58:16;;;;;;;31.98;26.67;;;;;;;16.03;77.07;95072.72;5110824;28;20042;-70
2022/05/26 03:00:50;;;;;;;34.47;26.73;;;;;;;16.09;77.47;95068.66;5109722;28;20059;-70
2022/05/26 03:03:21;;;;;;;34.70;27.20;;;;;;;15.99;77.93;95063.53;5109670;28;20083;-70
2022/05/26 03:06:06;;;;;;;;;;;;;;;16.12;77.92;95078.03;5109833;28;20085;-70
2022/05/26 03:08:33;;;;;;;35.72;25.23;;;;;;;16.18;77.71;95082.63;5097562;28;19999;-70
2022/05/26 03:11:19;;;;;;;34.92;25.85;;;;;;;16.23;77.48;95067.28;5080383;28;20412;-70
2022/05/26 03:13:44;;;;;;;32.47;24.50;;;;;;;16.24;76.74;95088.09;5092096;28;20519;-70
2022/05/26 03:16:10;;;;;;;33.30;24.17;;;;;;;16.20;76.55;95091.16;5109838;28;20031;-69
2022/05/26 03:18:36;;;;;;;27.13;22.75;;;;;;;16.25;75.97;95088.91;5092289;28;20412;-70
2022/05/26 03:21:02;;;;;;;32.45;24.23;;;;;;;16.24;75.78;95097.72;5092464;28;20031;-71
2022/05/26 03:23:28;;;;;;;30.05;23.58;;;;;;;16.17;75.71;95102.78;5091056;28;20039;-70
2022/05/26 03:25:57;;;;;;;31.73;24.40;;;;;;;16.16;75.78;95109.00;5092651;28;20027;-70
2022/05/26 03:28:26;;;;;;;29.52;23.50;;;;;;;16.18;75.57;95108.84;5110793;28;20374;-69
2022/05/26 03:30:52;;;;;;;29.65;24.08;;;;;;;16.21;75.51;95114.59;5092842;28;20024;-69
2022/05/26 03:33:17;;;;;;;33.03;23.02;;;;;;;16.23;75.38;95107.41;5109167;28;20039;-69
2022/05/26 03:41:11;;;;;;;28.85;23.48;;;;;;;16.27;74.96;95118.41;5113105;28;20038;-69
2022/05/26 03:43:39;;;;;;;28.33;21.30;;;;;;;16.16;74.86;95105.53;5113016;28;20028;-70
2022/05/26 03:46:04;;;;;;;28.77;21.40;;;;;;;16.21;75.05;95119.00;5114034;28;20481;-70
2022/05/26 03:48:30;;;;;;;27.50;22.13;;;;;;;16.28;74.97;95123.50;5079218;28;20096;-69
2022/05/26 03:50:55;;;;;;;30.83;23.20;;;;;;;16.36;74.11;95119.28;5114352;28;20420;-69
2022/05/26 03:53:21;;;;;;;28.92;22.77;;;;;;;16.33;74.24;95132.72;5114080;28;20063;-69
2022/05/26 03:55:46;;;;;;;30.70;22.58;;;;;;;16.36;73.97;95121.91;5113827;28;20485;-69
2022/05/26 03:58:12;;;;;;;28.85;23.02;;;;;;;16.34;74.18;95134.34;5114164;28;20032;-69
2022/05/26 04:00:37;;;;;;;27.75;23.63;;;;;;;16.29;74.34;95130.38;5095865;28;20436;-69
2022/05/26 04:03:03;;;;;;;27.98;22.98;;;;;;;16.20;74.69;95123.44;5113737;28;20055;-70
2022/05/26 04:05:28;;;;;;;26.85;21.75;;;;;;;16.23;74.76;95135.41;5113048;28;20032;-69
2022/05/26 04:07:54;;;;;;;25.48;21.80;;;;;;;16.27;74.98;95150.69;5095619;28;20482;-69
2022/05/26 04:10:19;;;;;;;28.05;21.95;;;;;;;16.25;75.01;95144.78;5112551;28;20031;-69
2022/05/26 04:12:45;;;;;;;28.13;22.20;;;;;;;16.30;75.01;95144.31;5095520;28;20044;-69
2022/05/26 04:15:11;;;;;;;25.92;21.98;;;;;;;16.33;75.21;95153.69;5095376;28;20035;-69
2022/05/26 04:17:37;;;;;;;25.80;21.13;;;;;;;16.37;75.20;95150.56;5112023;28;20046;-69
2022/05/26 04:20:04;;;;;;;24.30;21.35;;;;;;;16.49;75.12;95156.38;5095433;28;20485;-70
2022/05/26 04:22:29;;;;;;;27.33;20.38;;;;;;;16.62;74.74;95153.34;5113391;28;20493;-70
2022/05/26 04:24:57;;;;;;;27.85;21.55;;;;;;;16.71;74.71;95162.91;5095233;28;20032;-69
2022/05/26 04:27:24;;;;;;;25.30;21.38;;;;;;;16.90;74.37;95157.44;5095110;28;20078;-69
2022/05/26 04:29:49;;;;;;;25.65;21.63;;;;;;;17.12;73.67;95155.25;5112279;28;20031;-69
2022/05/26 04:32:15;;;;;;;29.92;24.05;;;;;;;17.32;73.64;95153.16;5112342;28;20039;-69
2022/05/26 04:34:40;;;;;;;28.48;23.77;;;;;;;17.69;72.63;95151.91;5112257;28;20028;-69
2022/05/26 04:37:06;;;;;;;28.00;22.70;;;;;;;18.27;70.55;95166.75;5113815;28;20047;-69
2022/05/26 04:39:32;;;;;;;27.67;22.75;;;;;;;18.86;68.02;95159.44;5112918;27;20500;-69
2022/05/26 04:41:59;;;;;;;27.52;21.33;;;;;;;19.27;66.34;95155.81;5100161;28;20047;-70
2022/05/26 04:44:24;;;;;;;27.42;21.50;;;;;;;19.49;65.69;95162.94;5100553;28;20030;-69
2022/05/26 04:46:50;;;;;;;27.42;21.08;;;;;;;19.89;64.60;95147.88;5111395;28;20035;-70
2022/05/26 04:49:15;;;;;;;27.02;22.08;;;;;;;19.57;66.35;95162.06;5111937;28;20028;-70
2022/05/26 04:51:41;;;;;;;25.85;21.00;;;;;;;19.30;67.21;95156.28;5112267;28;20036;-69
2022/05/26 04:54:07;;;;;;;25.05;21.17;;;;;;;19.26;67.68;95164.72;5094836;28;20024;-69
2022/05/26 04:56:32;;;;;;;29.27;20.95;;;;;;;19.32;66.94;95167.47;5112648;28;20457;-70
2022/05/26 04:58:57;;;;;;;30.63;20.13;;;;;;;19.33;66.25;95163.81;5111485;28;20481;-70
2022/05/26 05:01:23;;;;;;;27.70;20.02;;;;;;;19.41;66.39;95160.34;5112817;28;20059;-69
2022/05/26 05:03:48;;;;;;;34.83;20.58;;;;;;;19.39;66.58;95163.16;5077749;28;20566;-70
2022/05/26 05:06:14;;;;;;;30.42;19.88;;;;;;;19.50;66.00;95159.31;5113011;28;20019;-70
2022/05/26 05:08:41;;;;;;;25.02;20.42;;;;;;;19.63;66.19;95158.72;5093979;27;20041;-70
2022/05/26 05:11:07;;;;;;;29.65;19.52;;;;;;;19.76;64.89;95163.47;5109414;27;20087;-70
2022/05/26 05:13:32;;;;;;;26.20;18.55;;;;;;;19.93;64.84;95159.72;5075875;28;20031;-69
2022/05/26 05:16:06;;;;;;;25.23;18.60;;;;;;;20.08;64.13;95171.13;5110448;28;20548;-69
2022/05/26 05:18:32;;;;;;;26.25;18.80;;;;;;;20.28;63.79;95170.63;5091975;28;20438;-70
2022/05/26 05:21:02;;;;;;;26.85;19.30;;;;;;;20.41;64.11;95175.31;5111437;28;20027;-69
2022/05/26 05:23:27;;;;;;;30.30;20.08;;;;;;;20.67;63.40;95169.63;5111646;27;20023;-69
2022/05/26 05:25:53;;;;;;;24.63;19.85;;;;;;;20.75;62.49;95170.41;5091984;28;20027;-69
2022/05/26 05:28:21;;;;;;;29.55;21.00;;;;;;;20.89;62.07;95175.84;5093250;28;20408;-70
2022/05/26 05:30:54;;;;;;;25.70;20.00;;;;;;;20.81;61.52;95147.72;5110717;28;20020;-70
2022/05/26 05:33:31;;;;;;;30.50;21.15;;;;;;;21.07;60.79;95181.59;5107899;28;20039;-69
2022/05/26 05:36:13;;;;;;;32.22;20.85;;;;;;;21.22;60.70;95184.22;5107205;27;20027;-70
2022/05/26 05:38:38;;;;;;;34.25;21.00;;;;;;;21.39;61.33;95184.84;5109138;28;20107;-69
2022/05/26 05:41:05;;;;;;;30.80;20.00;;;;;;;21.53;60.40;95188.47;5110249;27;20443;-69
2022/05/26 05:43:31;;;;;;;31.42;21.05;;;;;;;21.62;60.39;95187.38;5112586;27;20038;-69
2022/05/26 05:45:56;;;;;;;31.80;21.23;;;;;;;21.69;59.51;95190.91;5109975;28;20019;-69
2022/05/26 05:48:22;;;;;;;34.03;22.50;;;;;;;21.74;59.72;95195.66;5108842;28;20090;-70
2022/05/26 05:50:48;;;;;;;35.90;20.80;;;;;;;21.73;60.29;95176.31;5106736;27;20089;-69
2022/05/26 05:53:15;;;;;;;31.27;20.25;;;;;;;21.93;59.21;95199.50;5112763;27;20032;-70
2022/05/26 05:55:41;;;;;;;30.35;19.48;;;;;;;22.16;58.66;95204.59;5110129;28;20091;-70
2022/05/26 05:58:08;;;;;;;29.40;20.85;;;;;;;22.32;58.35;95208.88;5109917;28;20047;-70
2022/05/26 06:00:34;;;;;;;30.00;20.67;;;;;;;22.43;57.65;95208.34;5111934;28;20447;-71
2022/05/26 06:02:59;;;;;;;29.25;19.95;;;;;;;22.41;57.09;95207.72;5110202;28;20078;-70
2022/05/26 06:05:25;;;;;;;29.05;19.02;;;;;;;22.53;56.26;95208.81;5112780;27;20023;-70
2022/05/26 06:07:50;;;;;;;29.55;18.55;;;;;;;22.61;56.13;95213.97;5113684;27;20039;-71
2022/05/26 06:10:16;;;;;;;31.08;19.63;;;;;;;22.75;55.84;95221.00;5111380;28;20077;-71
2022/05/26 06:12:42;;;;;;;28.75;18.88;;;;;;;22.81;55.01;95208.81;5107004;28;20501;-71
2022/05/26 06:15:07;;;;;;;32.05;20.02;;;;;;;22.84;55.85;95218.22;5106997;28;20023;-72
2022/05/26 06:17:33;;;;;;;27.40;18.60;;;;;;;22.97;54.67;95221.00;5102584;28;20136;-72
2022/05/26 06:19:58;;;;;;;29.80;18.63;;;;;;;23.11;55.40;95224.53;5100887;28;20034;-71
2022/05/26 06:22:24;;;;;;;26.52;18.42;;;;;;;23.23;54.62;95222.16;5115169;27;20093;-71
2022/05/26 06:24:50;;;;;;;24.98;18.48;;;;;;;23.41;54.24;95225.13;5088418;28;20511;-72
2022/05/26 06:30:03;;;;;;;32.20;18.08;;;;;;;23.67;53.08;95220.94;5106922;28;20035;-72
2022/05/26 06:38:00;;;;;;;22.83;15.07;;;;;;;23.75;50.23;95226.09;5107016;27;20043;-72
2022/05/26 06:40:28;;;;;;;24.08;15.27;;;;;;;23.81;48.95;95230.63;5106782;28;20085;-72
2022/05/26 06:42:55;;;;;;;20.13;14.70;;;;;;;23.92;50.18;95227.38;5104771;28;20035;-72
2022/05/26 06:45:21;;;;;;;23.40;14.32;;;;;;;23.96;49.64;95225.13;5107180;28;20020;-72
2022/05/26 06:47:46;;;;;;;18.05;14.48;;;;;;;24.00;48.60;95223.75;5107154;28;20024;-72
2022/05/26 06:50:12;;;;;;;23.50;14.68;;;;;;;24.09;48.57;95228.66;5108494;28;20027;-72
2022/05/26 06:52:37;;;;;;;27.45;15.27;;;;;;;24.18;49.06;95231.13;5090947;28;20506;-72
2022/05/26 06:55:04;;;;;;;26.02;15.20;;;;;;;24.12;48.23;95227.44;5092270;28;20465;-72
2022/05/26 06:57:29;;;;;;;23.52;14.82;;;;;;;24.18;47.22;95231.97;5112973;28;20032;-72
2022/05/26 06:59:55;;;;;;;22.23;14.88;;;;;;;24.22;48.43;95237.66;5109966;27;20408;-72
2022/05/26 07:02:20;;;;;;;33.60;16.40;;;;;;;24.34;49.08;95237.88;5107200;28;20112;-72
2022/05/26 07:04:46;;;;;;;24.15;14.63;;;;;;;24.48;49.21;95242.22;5098859;28;20047;-72
2022/05/26 07:07:13;;;;;;;23.30;15.32;;;;;;;24.59;48.62;95240.81;5111468;27;20040;-72
2022/05/26 07:09:38;;;;;;;19.90;15.05;;;;;;;24.57;47.02;95242.84;5109266;28;20035;-72
2022/05/26 07:12:04;;;;;;;18.35;14.32;;;;;;;24.61;48.63;95249.38;5108026;28;20040;-72
2022/05/26 07:14:29;;;;;;;28.52;15.43;;;;;;;24.71;47.72;95249.78;5095011;28;20492;-72
2022/05/26 07:16:55;;;;;;;19.90;14.15;;;;;;;24.79;46.69;95252.25;5095566;28;20031;-72
2022/05/26 07:19:21;;;;;;;22.05;14.23;;;;;;;24.83;46.67;95242.84;5113534;28;20039;-71
2022/05/26 07:21:48;;;;;;;19.63;14.15;;;;;;;24.92;46.50;95241.59;5112624;28;20035;-72
2022/05/26 07:24:15;;;;;;;18.67;13.35;;;;;;;25.07;46.20;95240.56;5095626;28;20085;-72
2022/05/26 07:26:40;;;;;;;20.40;12.88;;;;;;;25.19;43.15;95246.94;5095576;27;20032;-72
2022/05/26 07:29:06;;;;;;;20.42;14.05;;;;;;;25.20;45.17;95229.94;5135601;27;20031;-72
2022/05/26 07:31:31;;;;;;;21.30;14.20;;;;;;;25.39;44.63;95249.53;5101877;27;20047;-72
2022/05/26 07:33:57;;;;;;;23.25;14.48;;;;;;;25.31;44.67;95236.47;5091571;27;20039;-71
2022/05/26 07:42:03;;;;;;;21.77;14.63;;;;;;;25.57;44.86;95248.88;5111411;28;20050;-71
2022/05/26 07:44:29;;;;;;;23.40;12.77;;;;;;;25.65;44.07;95248.63;5075502;28;20032;-71
2022/05/26 07:46:56;;;;;;;21.00;12.43;;;;;;;25.71;40.98;95247.78;5096383;27;20396;-71
2022/05/26 07:49:21;;;;;;;23.70;12.50;;;;;;;25.85;41.28;95248.59;5093855;28;20031;-72
2022/05/26 07:51:47;;;;;;;19.42;12.02;;;;;;;25.95;41.38;95253.47;5091388;28;20043;-71
2022/05/26 07:54:12;;;;;;;20.58;13.02;;;;;;;26.11;41.56;95245.00;5113167;27;20024;-71
2022/05/26 07:56:38;;;;;;;18.83;12.20;;;;;;;26.21;41.03;95245.31;5114897;27;20035;-71
2022/05/26 07:59:04;;;;;;;28.13;12.45;;;;;;;26.26;40.40;95244.69;5111993;27;20035;-71
2022/05/26 08:01:30;;;;;;;20.38;12.40;;;;;;;26.27;40.02;95252.47;5092990;28;20039;-71
2022/05/26 08:03:56;;;;;;;22.23;11.50;;;;;;;26.16;39.91;95244.34;5116215;27;20243;-72
2022/05/26 08:06:21;;;;;;;20.45;11.90;;;;;;;26.14;42.11;95252.56;5110687;28;20020;-71
2022/05/26 08:08:47;;;;;;;20.63;12.02;;;;;;;25.89;41.00;95249.81;5131179;27;20031;-71
2022/05/26 08:11:12;;;;;;;27.23;12.52;;;;;;;25.88;42.40;95258.00;5098617;28;20518;-71
2022/05/26 08:13:38;;;;;;;23.98;12.52;;;;;;;25.94;43.00;95260.63;5072025;28;20039;-71
2022/05/26 08:16:05;;;;;;;30.23;13.82;;;;;;;26.13;42.70;95266.06;5113608;27;20030;-70
2022/05/26 08:18:31;;;;;;;28.75;13.00;;;;;;;25.96;43.41;95255.09;5127674;27;20031;-71
2022/05/26 08:21:07;;;;;;;20.67;11.57;;;;;;;26.11;40.94;95268.13;5126844;27;20377;-70
2022/05/26 08:23:33;;;;;;;17.70;10.50;;;;;;;26.25;40.91;95259.06;5112436;27;20416;-70
2022/05/26 08:25:58;;;;;;;21.95;11.07;;;;;;;26.47;41.77;95262.19;5094466;28;20016;-71
2022/05/26 08:28:24;;;;;;;22.05;10.07;;;;;;;26.60;38.80;95267.44;5113718;27;20043;-70
2022/05/26 08:30:49;;;;;;;22.88;9.38;;;;;;;26.62;39.72;95256.56;5110764;28;20019;-70
2022/05/26 08:33:15;;;;;;;15.27;9.45;;;;;;;26.79;39.69;95263.00;5110619;27;20039;-70
2022/05/26 08:35:40;;;;;;;17.95;9.32;;;;;;;26.95;39.02;95261.66;5114252;27;20043;-70
2022/05/26 08:38:06;;;;;;;18.40;9.55;;;;;;;27.02;38.78;95275.72;5095924;28;20026;-70
2022/05/26 08:40:40;;;;;;;14.13;6.47;;;;;;;27.19;38.47;95268.00;5112109;27;20412;-70
2022/05/26 08:43:08;;;;;;;9.13;4.65;;;;;;;27.29;34.57;95260.34;5091571;28;20039;-70
2022/05/26 08:45:33;;;;;;;13.63;5.05;;;;;;;27.44;35.58;95270.63;5110625;27;20074;-71
2022/05/26 08:47:59;;;;;;;16.50;5.63;;;;;;;27.57;34.29;95267.03;5070956;28;20095;-70
2022/05/26 08:50:27;;;;;;;13.70;4.80;;;;;;;27.45;34.16;95256.28;5079009;28;20567;-70
2022/05/26 08:52:56;;;;;;;12.38;4.97;;;;;;;27.53;35.29;95266.66;5095817;28;20038;-70
2022/05/26 08:55:31;;;;;;;10.63;5.32;;;;;;;27.64;35.33;95267.78;5114558;27;20024;-70
2022/05/26 08:58:04;;;;;;;17.63;5.60;;;;;;;27.76;35.07;95270.50;5074665;28;20054;-70
2022/05/26 09:00:30;;;;;;;13.57;6.05;;;;;;;27.82;35.03;95264.31;5098287;28;20034;-70
2022/05/26 09:02:58;;;;;;;11.75;5.38;;;;;;;27.90;36.00;95264.00;5106912;27;20055;-70
2022/05/26 09:05:24;;;;;;;9.13;5.07;;;;;;;28.01;34.92;95273.94;5109650;27;20451;-71
2022/05/26 09:13:40;;;;;;;13.95;4.72;;;;;;;28.21;33.73;95270.19;5111860;27;20042;-71
2022/05/26 09:16:08;;;;;;;12.57;5.20;;;;;;;28.17;33.77;95256.47;5114253;27;20034;-71
2022/05/26 09:18:34;;;;;;;13.38;5.40;;;;;;;28.27;33.22;95272.75;5117365;27;20046;-71
2022/05/26 09:21:31;;;;;;;11.40;5.53;;;;;;;28.21;32.70;95279.00;5117198;27;20016;-70
2022/05/26 09:24:24;;;;;;;15.27;5.28;;;;;;;28.22;33.84;95269.13;5113145;27;20082;-71
2022/05/26 09:27:20;;;;;;;10.85;5.22;;;;;;;28.25;34.15;95271.34;5115899;27;20114;-72
2022/05/26 09:29:46;;;;;;;11.30;5.13;;;;;;;28.42;33.47;95271.56;5115293;27;20030;-71
2022/05/26 09:32:17;;;;;;;13.98;4.88;;;;;;;28.42;32.50;95269.72;5092881;27;20028;-74
2022/05/26 09:34:43;;;;;;;10.40;5.00;;;;;;;28.41;33.44;95265.38;5104389;27;20564;-71
2022/05/26 09:37:08;;;;;;;15.48;5.05;;;;;;;28.46;32.79;95265.53;5110440;28;20089;-71
2022/05/26 09:39:43;;;;;;;11.98;5.13;;;;;;;28.59;32.56;95264.53;5123727;27;20035;-71
2022/05/26 09:42:14;;;;;;;14.40;5.00;;;;;;;28.73;32.82;95259.81;5113119;27;20039;-71
2022/05/26 09:44:43;;;;;;;9.75;4.50;;;;;;;28.76;32.21;95259.34;5110243;28;20028;-72
2022/05/26 09:47:39;;;;;;;13.75;4.72;;;;;;;28.80;30.84;95255.16;5111534;28;20046;-71
2022/05/26 09:50:10;;;;;;;10.48;4.55;;;;;;;28.83;31.16;95243.19;5109783;28;20032;-71
2022/05/26 09:52:46;;;;;;;9.95;4.60;;;;;;;28.89;31.37;95251.13;5092101;28;20043;-71
2022/05/26 09:55:21;;;;;;;10.60;4.50;;;;;;;29.01;30.29;95261.00;5108451;28;20073;-71
2022/05/26 09:57:46;;;;;;;11.45;4.40;;;;;;;29.06;30.71;95255.78;5108725;28;20062;-71
2022/05/26 10:00:31;;;;;;;9.30;4.70;;;;;;;29.10;30.55;95244.41;5091771;28;20488;-72
2022/05/26 10:02:57;;;;;;;11.50;4.32;;;;;;;29.21;31.17;95247.31;5092928;28;20055;-71
2022/05/26 10:05:37;;;;;;;12.50;4.43;;;;;;;29.29;30.17;95253.13;5091716;28;20517;-71
2022/05/26 10:08:24;;;;;;;14.23;4.35;;;;;;;29.28;28.91;95243.50;5093010;28;20147;-71
2022/05/26 10:11:03;;;;;;;7.95;4.28;;;;;;;29.31;28.83;95253.72;5109860;28;20031;-71
2022/05/26 10:13:48;;;;;;;12.15;4.25;;;;;;;29.31;28.64;95250.22;5093295;28;20047;-71
2022/05/26 10:16:38;;;;;;;11.50;4.60;;;;;;;29.29;29.78;95250.47;5108270;28;20035;-71
2022/05/26 10:19:33;;;;;;;13.82;4.38;;;;;;;29.26;28.38;95240.22;5093572;28;20053;-71
2022/05/26 10:22:08;;;;;;;11.07;4.00;;;;;;;29.29;28.26;95237.09;5110650;28;20412;-71
2022/05/26 10:24:39;;;;;;;15.57;4.63;;;;;;;29.33;28.52;95245.44;5110791;28;20020;-71
2022/05/26 10:27:50;;;;;;;10.95;4.03;;;;;;;29.31;29.31;95237.66;5111779;28;20058;-71
2022/05/26 10:30:28;;;;;;;11.55;4.57;;;;;;;29.35;29.56;95241.50;5088503;28;20181;-71
2022/05/26 10:33:08;;;;;;;14.90;4.43;;;;;;;29.47;30.15;95238.78;5111897;28;20027;-71
2022/05/26 10:35:49;;;;;;;8.95;4.07;;;;;;;29.53;28.46;95231.69;5111524;28;20023;-71
2022/05/26 10:38:36;;;;;;;10.88;4.28;;;;;;;29.56;29.28;95231.22;5111426;28;20145;-71
2022/05/26 10:41:14;;;;;;;9.02;3.80;;;;;;;29.64;28.03;95227.41;5110421;28;20114;-71
2022/05/26 10:44:10;;;;;;;9.48;4.38;;;;;;;29.65;28.43;95237.88;5111307;28;20122;-71
2022/05/26 10:46:38;;;;;;;17.38;4.20;;;;;;;29.63;27.26;95231.94;5111425;28;20042;-71
2022/05/26 10:49:44;;;;;;;18.70;4.38;;;;;;;29.45;27.17;95248.94;5093276;28;20081;-71
2022/05/26 10:52:16;;;;;;;11.23;3.92;;;;;;;29.31;25.50;95231.47;5087966;28;20104;-71
2022/05/26 10:54:59;;;;;;;12.10;3.80;;;;;;;29.23;25.56;95235.34;5110129;28;20027;-71
2022/05/26 10:57:44;;;;;;;15.77;3.50;;;;;;;29.14;25.78;95240.25;5110174;28;20036;-71
2022/05/26 11:00:16;;;;;;;10.57;3.80;;;;;;;29.11;26.03;95235.34;5110073;28;20020;-71
2022/05/26 11:02:51;;;;;;;15.05;3.90;;;;;;;29.15;26.64;95230.34;5109826;28;20100;-72
2022/05/26 11:05:22;;;;;;;13.40;4.43;;;;;;;29.20;27.57;95229.63;5111198;28;20038;-71
2022/05/26 11:07:50;;;;;;;9.93;3.90;;;;;;;29.27;26.29;95212.41;5110037;28;20036;-71
2022/05/26 11:10:37;;;;;;;9.98;3.83;;;;;;;29.38;26.73;95214.25;5093298;28;20032;-71
2022/05/26 11:13:11;;;;;;;10.20;3.78;;;;;;;29.45;26.21;95208.81;5111530;28;20459;-71
2022/05/26 11:18:35;;;;;;;11.35;4.55;;;;;;;29.56;26.70;95215.16;5096009;28;20484;-71
2022/05/26 11:21:00;;;;;;;12.02;4.43;;;;;;;29.51;27.00;95204.38;5093424;28;20094;-71
2022/05/26 11:23:27;;;;;;;13.02;4.63;;;;;;;29.62;27.88;95215.03;5109875;28;20039;-71
2022/05/26 11:26:03;;;;;;;13.48;4.45;;;;;;;29.65;29.48;95221.81;5076032;28;20092;-71
2022/05/26 11:28:41;;;;;;;14.65;5.20;;;;;;;29.60;29.36;95216.34;5111442;28;20451;-71
2022/05/26 11:36:56;;;;;;;11.27;5.10;;;;;;;29.60;29.78;95197.59;5109972;28;20219;-71
2022/05/26 11:39:30;;;;;;;12.88;5.35;;;;;;;29.52;30.17;95198.78;5109669;28;20027;-72
2022/05/26 11:42:01;;;;;;;12.77;5.40;;;;;;;29.35;31.04;95201.38;5093361;28;20516;-72
2022/05/26 11:44:29;;;;;;;10.75;5.70;;;;;;;29.35;30.75;95185.31;5092781;28;20035;-72
2022/05/26 11:47:11;;;;;;;13.75;5.20;;;;;;;29.30;31.29;95198.56;5111152;28;20288;-72
2022/05/26 11:49:43;;;;;;;11.48;5.00;;;;;;;29.28;30.77;95206.03;5108883;28;20042;-72
2022/05/26 11:52:34;;;;;;;12.60;5.30;;;;;;;29.32;31.47;95204.50;5110692;28;20036;-72
2022/05/26 11:55:02;;;;;;;14.13;5.18;;;;;;;29.34;31.33;95197.06;5090722;28;20173;-72
2022/05/26 11:57:43;;;;;;;10.23;5.63;;;;;;;29.44;30.62;95206.34;5110965;28;20028;-72
2022/05/26 12:00:14;;;;;;;9.98;5.10;;;;;;;29.43;30.27;95210.09;5112338;28;20024;-72
2022/05/26 12:02:40;;;;;;;11.57;4.80;;;;;;;29.37;30.35;95203.81;5114144;28;20055;-72
2022/05/26 12:05:31;;;;;;;15.25;5.60;;;;;;;29.27;30.84;95191.03;5096222;28;20032;-72
2022/05/26 12:08:04;;;;;;;12.95;5.55;;;;;;;29.32;31.39;95203.69;5112666;28;20110;-72
2022/05/26 12:10:38;;;;;;;10.18;5.30;;;;;;;29.31;30.80;95205.56;5113134;28;20501;-72
2022/05/26 12:13:25;;;;;;;10.05;5.38;;;;;;;29.33;31.33;95208.81;5096464;28;20485;-72
2022/05/26 12:16:17;;;;;;;8.85;5.30;;;;;;;29.22;30.94;95225.69;5112997;28;20054;-72